Weather at Gold Coast Life Saver Base

Public forecast

Using degrees Celsius for public forecast. Weather courtesy of forecast.io.

Closest aviation weather report (METAR) to Gold Coast Life Saver Base

Closest report is Gold Coast Airport, 12.3 nm (22.7 km) SE. Retrieved 2021/07/24 01:30 UTC (4 minutes ago):

YBCG 240130Z AUTO 30011KT 9999 // NCD 21/11 Q1007 RF000/0000

Closest aviation forecast (TAF) to Gold Coast Life Saver Base

Closest forecast is Gold Coast Airport, 12.3 nm (22.7 km) SE. Retrieved 2021-07-24 00:00 UTC (2 hours ago):

TAF YBCG 232336Z 2400/2500 31012KT CAVOK FM240800 32007KT CAVOK